sensor_id;sensor_type;location;lat;lon;timestamp;pressure;altitude;pressure_sealevel;temperature;humidity
66547;BME280;53400;50.364;14.874;2023-07-13T00:02:17;98255.97;;;22.75;69.67
66547;BME280;53400;50.364;14.874;2023-07-13T00:04:43;98259.66;;;21.99;75.24
66547;BME280;53400;50.364;14.874;2023-07-13T00:07:10;98265.28;;;22.32;74.85
66547;BME280;53400;50.364;14.874;2023-07-13T00:09:37;98267.28;;;22.14;75.29
66547;BME280;53400;50.364;14.874;2023-07-13T00:12:05;98279.16;;;22.18;74.82
66547;BME280;53400;50.364;14.874;2023-07-13T00:14:32;98271.59;;;22.24;74.43
66547;BME280;53400;50.364;14.874;2023-07-13T00:17:00;98272.25;;;22.21;73.41
66547;BME280;53400;50.364;14.874;2023-07-13T00:19:26;98270.53;;;22.16;75.76
66547;BME280;53400;50.364;14.874;2023-07-13T00:21:52;98272.69;;;22.32;74.81
66547;BME280;53400;50.364;14.874;2023-07-13T00:24:21;98266.78;;;22.21;74.43
66547;BME280;53400;50.364;14.874;2023-07-13T00:26:51;98272.50;;;22.37;73.38
66547;BME280;53400;50.364;14.874;2023-07-13T00:29:17;98273.75;;;22.81;72.15
66547;BME280;53400;50.364;14.874;2023-07-13T00:31:43;98274.22;;;22.62;72.29
66547;BME280;53400;50.364;14.874;2023-07-13T00:34:10;98280.69;;;21.98;76.21
66547;BME280;53400;50.364;14.874;2023-07-13T00:36:36;98263.03;;;21.58;77.25
66547;BME280;53400;50.364;14.874;2023-07-13T00:39:02;98252.94;;;20.68;82.61
66547;BME280;53400;50.364;14.874;2023-07-13T00:41:29;98252.44;;;20.83;81.06
66547;BME280;53400;50.364;14.874;2023-07-13T00:43:58;98261.69;;;21.08;80.13
66547;BME280;53400;50.364;14.874;2023-07-13T00:46:26;98261.34;;;21.36;77.71
66547;BME280;53400;50.364;14.874;2023-07-13T00:48:55;98243.69;;;21.50;78.08
66547;BME280;53400;50.364;14.874;2023-07-13T00:51:27;98243.16;;;21.66;77.09
66547;BME280;53400;50.364;14.874;2023-07-13T00:53:56;98242.31;;;21.74;77.92
66547;BME280;53400;50.364;14.874;2023-07-13T00:56:24;98236.31;;;21.51;79.41
66547;BME280;53400;50.364;14.874;2023-07-13T00:58:51;98231.56;;;21.77;78.39
66547;BME280;53400;50.364;14.874;2023-07-13T01:01:19;98229.16;;;21.76;77.37
66547;BME280;53400;50.364;14.874;2023-07-13T01:03:45;98230.28;;;21.75;76.72
66547;BME280;53400;50.364;14.874;2023-07-13T01:06:13;98217.97;;;21.98;76.52
66547;BME280;53400;50.364;14.874;2023-07-13T01:08:39;98209.06;;;21.89;76.49
66547;BME280;53400;50.364;14.874;2023-07-13T01:11:05;98215.53;;;21.76;76.87
66547;BME280;53400;50.364;14.874;2023-07-13T01:13:34;98199.31;;;21.80;74.96
66547;BME280;53400;50.364;14.874;2023-07-13T01:16:04;98201.06;;;21.84;73.56
66547;BME280;53400;50.364;14.874;2023-07-13T01:18:32;98204.06;;;21.91;76.03
66547;BME280;53400;50.364;14.874;2023-07-13T01:21:03;98196.53;;;21.59;77.97
66547;BME280;53400;50.364;14.874;2023-07-13T01:23:31;98201.38;;;21.53;78.32
66547;BME280;53400;50.364;14.874;2023-07-13T01:25:59;98199.91;;;21.56;78.08
66547;BME280;53400;50.364;14.874;2023-07-13T01:28:26;98192.00;;;21.71;77.17
66547;BME280;53400;50.364;14.874;2023-07-13T01:30:54;98195.91;;;21.91;75.36
66547;BME280;53400;50.364;14.874;2023-07-13T01:33:21;98181.13;;;22.22;71.27
66547;BME280;53400;50.364;14.874;2023-07-13T01:35:48;98194.28;;;22.62;72.78
66547;BME280;53400;50.364;14.874;2023-07-13T01:38:19;98192.09;;;22.55;72.78
66547;BME280;53400;50.364;14.874;2023-07-13T01:40:45;98189.50;;;22.17;72.76
66547;BME280;53400;50.364;14.874;2023-07-13T01:43:11;98186.94;;;22.12;72.73
66547;BME280;53400;50.364;14.874;2023-07-13T01:45:38;98187.28;;;22.10;75.93
66547;BME280;53400;50.364;14.874;2023-07-13T01:48:05;98193.22;;;21.83;77.30
66547;BME280;53400;50.364;14.874;2023-07-13T01:50:33;98190.63;;;21.57;78.60
66547;BME280;53400;50.364;14.874;2023-07-13T01:52:59;98189.97;;;21.60;75.63
66547;BME280;53400;50.364;14.874;2023-07-13T01:55:28;98194.69;;;21.42;75.86
66547;BME280;53400;50.364;14.874;2023-07-13T01:57:54;98203.56;;;21.21;78.82
66547;BME280;53400;50.364;14.874;2023-07-13T02:00:21;98206.41;;;21.34;77.64
66547;BME280;53400;50.364;14.874;2023-07-13T02:02:47;98207.84;;;21.22;77.92
66547;BME280;53400;50.364;14.874;2023-07-13T02:05:14;98213.13;;;21.36;77.06
66547;BME280;53400;50.364;14.874;2023-07-13T02:07:40;98210.75;;;21.17;77.76
66547;BME280;53400;50.364;14.874;2023-07-13T02:10:08;98218.34;;;20.85;79.05
66547;BME280;53400;50.364;14.874;2023-07-13T02:12:36;98221.22;;;20.80;78.75
66547;BME280;53400;50.364;14.874;2023-07-13T02:15:04;98218.84;;;20.79;78.94
66547;BME280;53400;50.364;14.874;2023-07-13T02:17:30;98219.78;;;20.57;81.28
66547;BME280;53400;50.364;14.874;2023-07-13T02:19:57;98217.72;;;20.54;80.66
66547;BME280;53400;50.364;14.874;2023-07-13T02:22:23;98217.03;;;21.00;75.64
66547;BME280;53400;50.364;14.874;2023-07-13T02:24:50;98210.63;;;20.96;75.39
66547;BME280;53400;50.364;14.874;2023-07-13T02:27:16;98219.28;;;20.90;75.65
66547;BME280;53400;50.364;14.874;2023-07-13T02:29:44;98234.03;;;20.54;77.42
66547;BME280;53400;50.364;14.874;2023-07-13T02:32:13;98231.81;;;20.56;77.56
66547;BME280;53400;50.364;14.874;2023-07-13T02:34:40;98218.03;;;20.52;78.77
66547;BME280;53400;50.364;14.874;2023-07-13T02:37:07;98217.22;;;20.43;78.61
66547;BME280;53400;50.364;14.874;2023-07-13T02:39:33;98227.56;;;20.24;78.53
66547;BME280;53400;50.364;14.874;2023-07-13T02:42:00;98229.00;;;20.12;78.26
66547;BME280;53400;50.364;14.874;2023-07-13T02:44:29;98229.06;;;19.73;80.99
66547;BME280;53400;50.364;14.874;2023-07-13T02:46:57;98225.28;;;19.91;79.49
66547;BME280;53400;50.364;14.874;2023-07-13T02:49:23;98229.72;;;19.87;78.01
66547;BME280;53400;50.364;14.874;2023-07-13T02:51:49;98235.84;;;19.61;78.36
66547;BME280;53400;50.364;14.874;2023-07-13T02:54:16;98233.38;;;19.42;79.23
66547;BME280;53400;50.364;14.874;2023-07-13T02:56:43;98227.34;;;19.45;78.89
66547;BME280;53400;50.364;14.874;2023-07-13T02:59:09;98234.53;;;19.50;77.67
66547;BME280;53400;50.364;14.874;2023-07-13T03:01:36;98229.38;;;19.40;78.24
66547;BME280;53400;50.364;14.874;2023-07-13T03:04:04;98230.31;;;19.35;78.33
66547;BME280;53400;50.364;14.874;2023-07-13T03:06:30;98242.47;;;19.38;78.06
66547;BME280;53400;50.364;14.874;2023-07-13T03:08:57;98240.75;;;19.42;77.48
66547;BME280;53400;50.364;14.874;2023-07-13T03:11:24;98235.78;;;19.44;77.36
66547;BME280;53400;50.364;14.874;2023-07-13T03:13:51;98242.84;;;19.45;77.41
66547;BME280;53400;50.364;14.874;2023-07-13T03:16:17;98241.78;;;19.63;76.66
66547;BME280;53400;50.364;14.874;2023-07-13T03:18:44;98249.44;;;19.61;77.00
66547;BME280;53400;50.364;14.874;2023-07-13T03:21:14;98250.34;;;19.48;77.56
66547;BME280;53400;50.364;14.874;2023-07-13T03:23:40;98246.00;;;19.47;77.63
66547;BME280;53400;50.364;14.874;2023-07-13T03:26:09;98235.78;;;19.13;79.38
66547;BME280;53400;50.364;14.874;2023-07-13T03:28:36;98238.38;;;19.18;79.32
66547;BME280;53400;50.364;14.874;2023-07-13T03:31:04;98236.91;;;19.43;78.26
66547;BME280;53400;50.364;14.874;2023-07-13T03:33:30;98239.00;;;19.15;79.75
66547;BME280;53400;50.364;14.874;2023-07-13T03:35:57;98241.31;;;19.30;79.17
66547;BME280;53400;50.364;14.874;2023-07-13T03:38:27;98247.41;;;19.36;78.89
66547;BME280;53400;50.364;14.874;2023-07-13T03:40:54;98247.75;;;19.43;78.75
66547;BME280;53400;50.364;14.874;2023-07-13T03:43:20;98243.28;;;19.47;78.66
66547;BME280;53400;50.364;14.874;2023-07-13T03:45:47;98243.91;;;19.66;77.85
66547;BME280;53400;50.364;14.874;2023-07-13T03:48:14;98242.16;;;19.70;77.72
66547;BME280;53400;50.364;14.874;2023-07-13T03:50:40;98252.84;;;19.67;77.79
66547;BME280;53400;50.364;14.874;2023-07-13T03:53:07;98250.97;;;19.76;77.71
66547;BME280;53400;50.364;14.874;2023-07-13T03:55:35;98264.16;;;19.60;78.16
66547;BME280;53400;50.364;14.874;2023-07-13T03:58:25;98273.56;;;19.94;77.58
66547;BME280;53400;50.364;14.874;2023-07-13T04:00:52;98275.50;;;19.93;77.46
66547;BME280;53400;50.364;14.874;2023-07-13T04:03:18;98285.50;;;19.76;78.63
66547;BME280;53400;50.364;14.874;2023-07-13T04:05:45;98289.06;;;19.62;79.28
66547;BME280;53400;50.364;14.874;2023-07-13T04:08:12;98294.28;;;19.50;80.22
66547;BME280;53400;50.364;14.874;2023-07-13T04:10:40;98342.81;;;19.20;81.69
66547;BME280;53400;50.364;14.874;2023-07-13T04:13:07;98367.53;;;18.96;83.08
66547;BME280;53400;50.364;14.874;2023-07-13T04:15:33;98380.13;;;18.78;81.81
66547;BME280;53400;50.364;14.874;2023-07-13T04:17:59;98370.09;;;18.79;79.73
66547;BME280;53400;50.364;14.874;2023-07-13T04:20:25;98367.56;;;18.83;79.75
66547;BME280;53400;50.364;14.874;2023-07-13T04:22:52;98355.22;;;18.76;78.81
66547;BME280;53400;50.364;14.874;2023-07-13T04:25:22;98355.91;;;18.82;78.99
66547;BME280;53400;50.364;14.874;2023-07-13T04:27:50;98354.75;;;18.97;78.45
66547;BME280;53400;50.364;14.874;2023-07-13T04:30:16;98374.28;;;18.71;79.32
66547;BME280;53400;50.364;14.874;2023-07-13T04:32:42;98372.28;;;18.63;80.01
66547;BME280;53400;50.364;14.874;2023-07-13T04:35:09;98386.97;;;18.34;83.23
66547;BME280;53400;50.364;14.874;2023-07-13T04:37:35;98368.88;;;18.57;85.62
66547;BME280;53400;50.364;14.874;2023-07-13T04:40:02;98338.06;;;18.26;86.50
66547;BME280;53400;50.364;14.874;2023-07-13T04:42:29;98327.34;;;18.07;90.91
66547;BME280;53400;50.364;14.874;2023-07-13T04:44:57;98345.31;;;18.03;92.68
66547;BME280;53400;50.364;14.874;2023-07-13T04:47:23;98344.59;;;17.83;94.92
66547;BME280;53400;50.364;14.874;2023-07-13T04:49:49;98348.09;;;17.84;94.18
66547;BME280;53400;50.364;14.874;2023-07-13T04:52:15;98347.06;;;17.80;95.47
66547;BME280;53400;50.364;14.874;2023-07-13T04:54:41;98352.44;;;17.66;97.02
66547;BME280;53400;50.364;14.874;2023-07-13T04:57:08;98347.25;;;17.70;98.16
66547;BME280;53400;50.364;14.874;2023-07-13T04:59:34;98360.06;;;17.64;98.76
66547;BME280;53400;50.364;14.874;2023-07-13T05:02:02;98356.16;;;17.56;99.58
66547;BME280;53400;50.364;14.874;2023-07-13T05:04:28;98362.75;;;17.64;100.00
66547;BME280;53400;50.364;14.874;2023-07-13T05:06:55;98372.09;;;17.58;99.43
66547;BME280;53400;50.364;14.874;2023-07-13T05:09:21;98367.78;;;17.57;99.83
66547;BME280;53400;50.364;14.874;2023-07-13T05:11:47;98372.41;;;17.37;100.00
66547;BME280;53400;50.364;14.874;2023-07-13T05:14:14;98371.88;;;17.54;100.00
66547;BME280;53400;50.364;14.874;2023-07-13T05:16:42;98366.88;;;17.94;98.56
66547;BME280;53400;50.364;14.874;2023-07-13T05:19:10;98371.50;;;17.94;100.00
66547;BME280;53400;50.364;14.874;2023-07-13T05:21:36;98365.69;;;18.14;100.00
66547;BME280;53400;50.364;14.874;2023-07-13T05:24:02;98367.41;;;18.24;100.00
66547;BME280;53400;50.364;14.874;2023-07-13T05:26:30;98371.72;;;18.11;100.00
66547;BME280;53400;50.364;14.874;2023-07-13T05:28:56;98370.50;;;18.17;100.00
66547;BME280;53400;50.364;14.874;2023-07-13T05:31:23;98368.28;;;18.05;100.00
66547;BME280;53400;50.364;14.874;2023-07-13T05:33:49;98379.22;;;18.28;100.00
66547;BME280;53400;50.364;14.874;2023-07-13T05:36:17;98377.44;;;18.23;99.83
66547;BME280;53400;50.364;14.874;2023-07-13T05:38:43;98367.38;;;18.10;99.09
66547;BME280;53400;50.364;14.874;2023-07-13T05:41:09;98383.03;;;18.13;99.10
66547;BME280;53400;50.364;14.874;2023-07-13T05:43:35;98383.75;;;18.19;99.85
66547;BME280;53400;50.364;14.874;2023-07-13T05:46:02;98376.41;;;18.47;100.00
66547;BME280;53400;50.364;14.874;2023-07-13T05:48:29;98382.06;;;18.78;98.27
66547;BME280;53400;50.364;14.874;2023-07-13T05:50:55;98376.63;;;18.78;99.36
66547;BME280;53400;50.364;14.874;2023-07-13T05:53:23;98384.41;;;19.30;94.75
66547;BME280;53400;50.364;14.874;2023-07-13T05:55:54;98385.13;;;19.21;94.64
66547;BME280;53400;50.364;14.874;2023-07-13T05:58:21;98396.25;;;19.34;93.59
66547;BME280;53400;50.364;14.874;2023-07-13T06:00:48;98394.53;;;19.01;93.39
66547;BME280;53400;50.364;14.874;2023-07-13T06:03:14;98391.31;;;19.36;92.36
66547;BME280;53400;50.364;14.874;2023-07-13T06:05:41;98394.50;;;19.38;94.27
66547;BME280;53400;50.364;14.874;2023-07-13T06:08:10;98403.53;;;19.92;90.58
66547;BME280;53400;50.364;14.874;2023-07-13T06:10:38;98404.19;;;20.29;89.27
66547;BME280;53400;50.364;14.874;2023-07-13T06:13:04;98406.41;;;20.58;87.91
66547;BME280;53400;50.364;14.874;2023-07-13T06:15:30;98400.63;;;20.20;88.43
66547;BME280;53400;50.364;14.874;2023-07-13T06:17:57;98407.34;;;20.22;90.22
66547;BME280;53400;50.364;14.874;2023-07-13T06:20:23;98416.03;;;20.81;88.00
66547;BME280;53400;50.364;14.874;2023-07-13T06:22:49;98412.91;;;21.14;83.39
66547;BME280;53400;50.364;14.874;2023-07-13T06:25:16;98418.38;;;21.40;81.70
66547;BME280;53400;50.364;14.874;2023-07-13T06:27:43;98429.09;;;21.45;80.35
66547;BME280;53400;50.364;14.874;2023-07-13T06:30:11;98422.03;;;21.79;81.67
66547;BME280;53400;50.364;14.874;2023-07-13T06:32:36;98427.00;;;21.86;80.44
66547;BME280;53400;50.364;14.874;2023-07-13T06:35:04;98422.25;;;22.12;78.93
66547;BME280;53400;50.364;14.874;2023-07-13T06:37:30;98429.00;;;22.24;77.16
66547;BME280;53400;50.364;14.874;2023-07-13T06:39:57;98425.75;;;22.68;77.55
66547;BME280;53400;50.364;14.874;2023-07-13T06:42:24;98419.16;;;22.99;76.23
66547;BME280;53400;50.364;14.874;2023-07-13T06:44:51;98417.09;;;22.96;75.46
66547;BME280;53400;50.364;14.874;2023-07-13T06:47:18;98417.66;;;22.81;76.36
66547;BME280;53400;50.364;14.874;2023-07-13T06:49:44;98417.59;;;22.98;76.91
66547;BME280;53400;50.364;14.874;2023-07-13T06:52:10;98426.31;;;23.33;74.99
66547;BME280;53400;50.364;14.874;2023-07-13T06:54:36;98426.84;;;23.48;72.16
66547;BME280;53400;50.364;14.874;2023-07-13T06:57:04;98432.34;;;23.81;73.07
66547;BME280;53400;50.364;14.874;2023-07-13T06:59:30;98430.97;;;24.20;73.09
66547;BME280;53400;50.364;14.874;2023-07-13T07:01:57;98435.72;;;24.57;70.12
66547;BME280;53400;50.364;14.874;2023-07-13T07:04:24;98434.31;;;24.87;69.77
66547;BME280;53400;50.364;14.874;2023-07-13T07:06:50;98433.19;;;24.76;68.18
66547;BME280;53400;50.364;14.874;2023-07-13T07:09:16;98433.19;;;24.88;68.61
66547;BME280;53400;50.364;14.874;2023-07-13T07:11:42;98445.16;;;25.21;67.00
66547;BME280;53400;50.364;14.874;2023-07-13T07:14:09;98439.94;;;25.44;64.13
66547;BME280;53400;50.364;14.874;2023-07-13T07:16:35;98448.75;;;25.37;65.02
66547;BME280;53400;50.364;14.874;2023-07-13T07:19:04;98439.81;;;24.63;66.89
66547;BME280;53400;50.364;14.874;2023-07-13T07:21:30;98447.50;;;25.34;65.63
66547;BME280;53400;50.364;14.874;2023-07-13T07:23:57;98453.13;;;25.94;64.30
66547;BME280;53400;50.364;14.874;2023-07-13T07:26:25;98438.31;;;25.83;64.52
66547;BME280;53400;50.364;14.874;2023-07-13T07:28:51;98453.63;;;25.44;61.51
66547;BME280;53400;50.364;14.874;2023-07-13T07:31:17;98455.63;;;25.31;62.55
66547;BME280;53400;50.364;14.874;2023-07-13T07:33:44;98452.91;;;25.59;62.83
66547;BME280;53400;50.364;14.874;2023-07-13T07:36:11;98462.06;;;24.73;64.49
66547;BME280;53400;50.364;14.874;2023-07-13T07:38:38;98461.91;;;25.07;64.75
66547;BME280;53400;50.364;14.874;2023-07-13T07:41:04;98463.13;;;25.46;63.46
66547;BME280;53400;50.364;14.874;2023-07-13T07:43:30;98463.25;;;25.78;60.49
66547;BME280;53400;50.364;14.874;2023-07-13T07:45:57;98462.19;;;25.14;61.02
66547;BME280;53400;50.364;14.874;2023-07-13T07:48:24;98456.34;;;24.91;60.99
66547;BME280;53400;50.364;14.874;2023-07-13T07:50:49;98467.84;;;25.33;59.96
66547;BME280;53400;50.364;14.874;2023-07-13T07:53:17;98466.13;;;25.29;60.38
66547;BME280;53400;50.364;14.874;2023-07-13T07:55:43;98465.69;;;25.27;59.51
66547;BME280;53400;50.364;14.874;2023-07-13T07:58:09;98471.63;;;25.04;60.08
66547;BME280;53400;50.364;14.874;2023-07-13T08:00:35;98483.03;;;24.45;60.49
66547;BME280;53400;50.364;14.874;2023-07-13T08:03:01;98479.94;;;24.13;59.99
66547;BME280;53400;50.364;14.874;2023-07-13T08:05:27;98486.56;;;24.58;61.82
66547;BME280;53400;50.364;14.874;2023-07-13T08:07:54;98482.25;;;25.06;60.37
66547;BME280;53400;50.364;14.874;2023-07-13T08:10:22;98492.63;;;25.37;59.13
66547;BME280;53400;50.364;14.874;2023-07-13T08:12:48;98475.94;;;25.70;58.48
66547;BME280;53400;50.364;14.874;2023-07-13T08:15:16;98479.34;;;25.79;57.43
66547;BME280;53400;50.364;14.874;2023-07-13T08:17:42;98482.94;;;25.68;57.20
66547;BME280;53400;50.364;14.874;2023-07-13T08:20:09;98479.81;;;25.41;57.21
66547;BME280;53400;50.364;14.874;2023-07-13T08:22:37;98478.59;;;25.26;57.10
66547;BME280;53400;50.364;14.874;2023-07-13T08:25:04;98478.47;;;25.10;57.31
66547;BME280;53400;50.364;14.874;2023-07-13T08:27:33;98486.47;;;25.03;57.63
66547;BME280;53400;50.364;14.874;2023-07-13T08:30:00;98484.50;;;25.28;57.33
66547;BME280;53400;50.364;14.874;2023-07-13T08:32:26;98485.22;;;25.01;58.01
66547;BME280;53400;50.364;14.874;2023-07-13T08:34:53;98493.03;;;25.51;56.57
66547;BME280;53400;50.364;14.874;2023-07-13T08:37:19;98490.00;;;25.28;56.27
66547;BME280;53400;50.364;14.874;2023-07-13T08:39:46;98495.13;;;25.42;54.86
66547;BME280;53400;50.364;14.874;2023-07-13T08:42:22;98503.59;;;25.00;56.64
66547;BME280;53400;50.364;14.874;2023-07-13T08:44:57;98499.38;;;25.03;56.82
66547;BME280;53400;50.364;14.874;2023-07-13T08:47:28;98503.47;;;25.09;57.90
66547;BME280;53400;50.364;14.874;2023-07-13T08:49:56;98499.50;;;24.94;56.13
66547;BME280;53400;50.364;14.874;2023-07-13T08:52:30;98509.63;;;24.69;57.20
66547;BME280;53400;50.364;14.874;2023-07-13T08:54:58;98512.53;;;24.39;56.64
66547;BME280;53400;50.364;14.874;2023-07-13T08:57:32;98507.09;;;24.52;55.84
66547;BME280;53400;50.364;14.874;2023-07-13T09:00:00;98519.81;;;24.81;56.27
66547;BME280;53400;50.364;14.874;2023-07-13T09:02:28;98512.38;;;24.81;56.54
66547;BME280;53400;50.364;14.874;2023-07-13T09:05:01;98517.84;;;24.57;56.92
66547;BME280;53400;50.364;14.874;2023-07-13T09:07:37;98507.13;;;24.64;57.14
66547;BME280;53400;50.364;14.874;2023-07-13T09:10:14;98506.78;;;24.53;55.37
66547;BME280;53400;50.364;14.874;2023-07-13T09:12:52;98512.19;;;24.86;56.03
66547;BME280;53400;50.364;14.874;2023-07-13T09:15:30;98511.50;;;25.26;53.87
66547;BME280;53400;50.364;14.874;2023-07-13T09:18:00;98519.72;;;24.89;55.88
66547;BME280;53400;50.364;14.874;2023-07-13T09:20:31;98516.63;;;25.15;54.24
66547;BME280;53400;50.364;14.874;2023-07-13T09:22:59;98511.59;;;24.93;53.71
66547;BME280;53400;50.364;14.874;2023-07-13T09:25:30;98514.22;;;25.26;51.36
66547;BME280;53400;50.364;14.874;2023-07-13T09:28:00;98511.03;;;25.24;52.65
66547;BME280;53400;50.364;14.874;2023-07-13T09:30:34;98514.38;;;25.58;49.54
66547;BME280;53400;50.364;14.874;2023-07-13T09:33:04;98528.81;;;25.95;49.37
66547;BME280;53400;50.364;14.874;2023-07-13T09:35:30;98524.28;;;25.87;48.59
66547;BME280;53400;50.364;14.874;2023-07-13T09:37:59;98518.22;;;26.09;48.09
66547;BME280;53400;50.364;14.874;2023-07-13T09:40:32;98529.72;;;26.43;47.82
66547;BME280;53400;50.364;14.874;2023-07-13T09:43:01;98533.44;;;26.07;48.02
66547;BME280;53400;50.364;14.874;2023-07-13T09:45:30;98541.91;;;26.02;47.48
66547;BME280;53400;50.364;14.874;2023-07-13T09:48:04;98546.94;;;25.72;49.04
66547;BME280;53400;50.364;14.874;2023-07-13T09:50:31;98536.81;;;25.48;48.44
66547;BME280;53400;50.364;14.874;2023-07-13T09:52:58;98543.78;;;24.84;49.32
66547;BME280;53400;50.364;14.874;2023-07-13T09:55:28;98535.16;;;24.15;52.40
66547;BME280;53400;50.364;14.874;2023-07-13T09:57:55;98548.28;;;24.55;52.50
66547;BME280;53400;50.364;14.874;2023-07-13T10:00:24;98552.59;;;24.44;50.43
66547;BME280;53400;50.364;14.874;2023-07-13T10:03:04;98556.22;;;24.93;50.30
66547;BME280;53400;50.364;14.874;2023-07-13T10:05:38;98554.00;;;25.85;48.92
66547;BME280;53400;50.364;14.874;2023-07-13T10:08:05;98556.78;;;25.60;48.85
66547;BME280;53400;50.364;14.874;2023-07-13T10:10:33;98554.78;;;25.85;47.75
66547;BME280;53400;50.364;14.874;2023-07-13T10:13:02;98554.97;;;25.93;48.13
66547;BME280;53400;50.364;14.874;2023-07-13T10:15:31;98570.97;;;26.03;48.67
66547;BME280;53400;50.364;14.874;2023-07-13T10:17:59;98557.38;;;26.22;47.12
66547;BME280;53400;50.364;14.874;2023-07-13T10:20:27;98553.34;;;26.32;46.83
66547;BME280;53400;50.364;14.874;2023-07-13T10:22:56;98570.53;;;26.57;46.90
66547;BME280;53400;50.364;14.874;2023-07-13T10:25:26;98570.66;;;25.80;46.13
66547;BME280;53400;50.364;14.874;2023-07-13T10:27:58;98569.06;;;25.79;47.72
66547;BME280;53400;50.364;14.874;2023-07-13T10:30:28;98565.06;;;26.17;43.22
66547;BME280;53400;50.364;14.874;2023-07-13T10:32:58;98559.50;;;25.73;46.03
66547;BME280;53400;50.364;14.874;2023-07-13T10:35:29;98569.47;;;26.05;45.25
66547;BME280;53400;50.364;14.874;2023-07-13T10:37:58;98562.72;;;26.75;45.74
66547;BME280;53400;50.364;14.874;2023-07-13T10:40:37;98575.25;;;27.20;47.08
66547;BME280;53400;50.364;14.874;2023-07-13T10:43:09;98568.72;;;27.44;46.49
66547;BME280;53400;50.364;14.874;2023-07-13T10:45:39;98559.53;;;27.05;46.59
66547;BME280;53400;50.364;14.874;2023-07-13T10:48:08;98561.31;;;27.29;47.18
66547;BME280;53400;50.364;14.874;2023-07-13T10:50:40;98556.75;;;27.72;46.04
66547;BME280;53400;50.364;14.874;2023-07-13T10:53:19;98553.91;;;26.09;48.65
66547;BME280;53400;50.364;14.874;2023-07-13T10:55:58;98550.16;;;26.74;47.90
66547;BME280;53400;50.364;14.874;2023-07-13T10:58:31;98548.53;;;27.05;44.81
66547;BME280;53400;50.364;14.874;2023-07-13T11:01:03;98547.59;;;26.97;46.61
66547;BME280;53400;50.364;14.874;2023-07-13T11:03:34;98556.25;;;27.31;45.72
66547;BME280;53400;50.364;14.874;2023-07-13T11:06:09;98554.94;;;27.09;45.61
66547;BME280;53400;50.364;14.874;2023-07-13T11:08:38;98561.19;;;27.41;44.54
66547;BME280;53400;50.364;14.874;2023-07-13T11:11:36;98548.41;;;27.84;46.50
66547;BME280;53400;50.364;14.874;2023-07-13T11:14:26;98563.00;;;27.68;45.56
66547;BME280;53400;50.364;14.874;2023-07-13T11:16:53;98553.59;;;27.34;45.05
66547;BME280;53400;50.364;14.874;2023-07-13T11:19:40;98554.94;;;27.95;45.01
66547;BME280;53400;50.364;14.874;2023-07-13T11:22:20;98556.97;;;27.63;45.48
66547;BME280;53400;50.364;14.874;2023-07-13T11:24:50;98553.94;;;27.33;45.51
66547;BME280;53400;50.364;14.874;2023-07-13T11:27:36;98539.25;;;26.93;46.39
66547;BME280;53400;50.364;14.874;2023-07-13T11:32:51;98538.66;;;27.51;46.46
66547;BME280;53400;50.364;14.874;2023-07-13T11:35:22;98545.25;;;27.82;45.66
66547;BME280;53400;50.364;14.874;2023-07-13T11:37:51;98541.09;;;28.30;44.33
66547;BME280;53400;50.364;14.874;2023-07-13T11:40:22;98539.78;;;28.44;44.91
66547;BME280;53400;50.364;14.874;2023-07-13T11:42:59;98538.56;;;29.10;45.07
66547;BME280;53400;50.364;14.874;2023-07-13T11:45:25;98542.72;;;28.77;44.20
66547;BME280;53400;50.364;14.874;2023-07-13T11:47:51;98535.66;;;27.76;43.48
66547;BME280;53400;50.364;14.874;2023-07-13T11:50:19;98528.63;;;26.76;46.81
66547;BME280;53400;50.364;14.874;2023-07-13T11:52:46;98527.44;;;26.93;46.27
66547;BME280;53400;50.364;14.874;2023-07-13T11:55:18;98528.06;;;27.34;46.65
66547;BME280;53400;50.364;14.874;2023-07-13T11:57:46;98520.03;;;26.93;47.11
66547;BME280;53400;50.364;14.874;2023-07-13T12:00:17;98523.53;;;27.26;46.34
66547;BME280;53400;50.364;14.874;2023-07-13T12:02:45;98519.28;;;27.12;45.64
66547;BME280;53400;50.364;14.874;2023-07-13T12:05:14;98518.91;;;28.23;44.16
66547;BME280;53400;50.364;14.874;2023-07-13T12:07:41;98515.06;;;28.70;42.64
66547;BME280;53400;50.364;14.874;2023-07-13T12:10:19;98522.69;;;28.15;44.31
66547;BME280;53400;50.364;14.874;2023-07-13T12:12:47;98515.16;;;28.54;41.80
66547;BME280;53400;50.364;14.874;2023-07-13T12:15:14;98518.97;;;27.49;44.18
66547;BME280;53400;50.364;14.874;2023-07-13T12:17:41;98522.44;;;27.46;44.70
66547;BME280;53400;50.364;14.874;2023-07-13T12:20:19;98516.19;;;26.98;44.86
66547;BME280;53400;50.364;14.874;2023-07-13T12:22:46;98517.63;;;26.92;44.54
66547;BME280;53400;50.364;14.874;2023-07-13T12:25:13;98506.38;;;27.48;44.16
66547;BME280;53400;50.364;14.874;2023-07-13T12:27:42;98499.13;;;27.59;44.98
66547;BME280;53400;50.364;14.874;2023-07-13T12:30:24;98511.06;;;27.83;45.63
66547;BME280;53400;50.364;14.874;2023-07-13T12:32:56;98509.94;;;27.87;45.28
66547;BME280;53400;50.364;14.874;2023-07-13T12:35:25;98531.97;;;28.07;45.69
66547;BME280;53400;50.364;14.874;2023-07-13T12:37:52;98518.94;;;27.84;46.40
66547;BME280;53400;50.364;14.874;2023-07-13T12:40:21;98523.34;;;28.08;45.82
66547;BME280;53400;50.364;14.874;2023-07-13T12:42:52;98522.50;;;27.14;45.36
66547;BME280;53400;50.364;14.874;2023-07-13T12:45:20;98519.13;;;27.21;45.29
66547;BME280;53400;50.364;14.874;2023-07-13T12:47:49;98516.03;;;27.97;44.23
66547;BME280;53400;50.364;14.874;2023-07-13T12:50:18;98520.00;;;27.99;44.05
66547;BME280;53400;50.364;14.874;2023-07-13T12:52:50;98518.84;;;27.61;45.41
66547;BME280;53400;50.364;14.874;2023-07-13T12:55:19;98520.81;;;26.62;45.88
66547;BME280;53400;50.364;14.874;2023-07-13T12:57:49;98525.44;;;27.41;44.12
66547;BME280;53400;50.364;14.874;2023-07-13T13:00:24;98528.19;;;27.76;44.71